Time;durP1;ratioP1;P1;durP2;ratioP2;P2;SDS_P1;SDS_P2;PMS_P1;PMS_P2;Temp;Humidity;BMP_temperature;BMP_pressure;BME280_temperature;BME280_humidity;BME280_pressure;Samples;Min_cycle;Max_cycle;Signal;HPM_P1;HPM_P2
2021/09/10 00:00:26;;;;;;;7.63;4.88;;;;;;;20.48;73.28;99239.72;5048269;28;20389;-73
2021/09/10 00:02:51;;;;;;;8.20;5.22;;;;;;;20.45;73.32;99234.63;5047265;28;20064;-73
2021/09/10 00:05:16;;;;;;;6.55;4.97;;;;;;;20.47;73.26;99232.66;5048274;28;20033;-74
2021/09/10 00:07:42;;;;;;;5.68;3.95;;;;;;;20.47;73.29;99238.00;5049832;28;20033;-74
2021/09/10 00:10:08;;;;;;;6.05;5.05;;;;;;;20.47;73.13;99233.50;5048239;28;20041;-74
2021/09/10 00:12:34;;;;;;;8.75;5.00;;;;;;;20.45;73.19;99231.97;5046309;28;20029;-73
2021/09/10 00:14:59;;;;;;;7.18;4.97;;;;;;;20.45;73.38;99234.63;5046503;28;20048;-73
2021/09/10 00:17:25;;;;;;;5.53;4.68;;;;;;;20.43;73.04;99236.63;5048913;28;20116;-71
2021/09/10 00:19:50;;;;;;;8.65;4.68;;;;;;;20.44;73.44;99244.50;5052588;28;20052;-72
2021/09/10 00:22:15;;;;;;;6.78;4.68;;;;;;;20.38;73.43;99240.63;5051913;28;20406;-73
2021/09/10 00:24:41;;;;;;;7.32;4.90;;;;;;;20.38;73.47;99242.47;5052163;28;20029;-72
2021/09/10 00:27:06;;;;;;;6.68;4.28;;;;;;;20.35;73.85;99235.56;5050791;28;20112;-73
2021/09/10 00:29:32;;;;;;;7.40;5.63;;;;;;;20.34;73.52;99235.72;5050863;28;20067;-72
2021/09/10 00:31:57;;;;;;;6.50;5.13;;;;;;;20.32;73.52;99238.53;5050340;28;20102;-72
2021/09/10 00:34:22;;;;;;;6.10;4.45;;;;;;;20.34;73.50;99235.72;5051684;28;20033;-73
2021/09/10 00:36:48;;;;;;;11.88;5.68;;;;;;;20.35;73.40;99240.06;5051501;28;20033;-72
2021/09/10 00:39:14;;;;;;;7.93;5.50;;;;;;;20.33;73.66;99240.22;5052137;28;20051;-74
2021/09/10 00:41:40;;;;;;;8.48;4.68;;;;;;;20.29;73.69;99241.53;5050609;28;20494;-73
2021/09/10 00:44:06;;;;;;;5.15;4.50;;;;;;;20.28;73.76;99237.16;5051538;28;20037;-73
2021/09/10 00:46:32;;;;;;;6.55;4.45;;;;;;;20.28;73.62;99234.50;5051975;28;20490;-74
2021/09/10 00:48:58;;;;;;;7.05;5.50;;;;;;;20.27;73.66;99240.81;5052413;28;20045;-73
2021/09/10 00:51:23;;;;;;;5.60;5.00;;;;;;;20.27;73.66;99242.66;5051428;28;20048;-73
2021/09/10 00:53:49;;;;;;;12.07;4.80;;;;;;;20.25;73.83;99233.94;5052630;28;20040;-73
2021/09/10 00:56:15;;;;;;;6.50;4.63;;;;;;;20.25;73.68;99233.94;5053194;28;20055;-74
2021/09/10 00:58:40;;;;;;;8.63;5.10;;;;;;;20.24;73.62;99229.59;5052204;28;20033;-73
2021/09/10 01:01:06;;;;;;;5.60;4.93;;;;;;;20.22;73.77;99237.75;5027490;28;20072;-73
2021/09/10 01:03:32;;;;;;;7.97;4.43;;;;;;;20.22;73.75;99234.25;5053052;28;20044;-74
2021/09/10 01:05:58;;;;;;;5.60;4.97;;;;;;;20.18;74.13;99236.38;5054920;28;20049;-75
2021/09/10 01:08:24;;;;;;;6.10;4.50;;;;;;;20.18;73.99;99236.38;5054756;28;20087;-74
2021/09/10 01:10:50;;;;;;;5.82;4.28;;;;;;;20.14;74.13;99230.50;5054160;28;20037;-72
2021/09/10 01:13:17;;;;;;;9.05;4.63;;;;;;;20.13;74.07;99236.84;5051568;28;20068;-72
2021/09/10 01:15:42;;;;;;;6.22;4.05;;;;;;;20.12;74.12;99219.09;5051549;28;20494;-73
2021/09/10 01:18:08;;;;;;;6.22;4.95;;;;;;;20.11;74.16;99222.75;5051877;28;20047;-73
2021/09/10 01:20:34;;;;;;;7.50;4.78;;;;;;;20.11;74.13;99224.59;5051140;28;20033;-72
2021/09/10 01:22:59;;;;;;;6.45;4.93;;;;;;;20.11;74.15;99219.25;5047758;28;20036;-73
2021/09/10 01:25:25;;;;;;;5.78;4.75;;;;;;;20.12;74.18;99227.13;5049296;28;20533;-73
2021/09/10 01:27:55;;;;;;;6.13;4.93;;;;;;;20.13;74.16;99223.47;5049729;28;20037;-73
2021/09/10 01:30:24;;;;;;;5.50;4.40;;;;;;;20.12;74.30;99220.91;5049418;28;20446;-72
2021/09/10 01:32:50;;;;;;;6.57;4.57;;;;;;;20.10;74.21;99220.22;5049178;28;20048;-73
2021/09/10 01:35:16;;;;;;;7.70;4.93;;;;;;;20.10;74.55;99225.59;5050264;28;20029;-74
2021/09/10 01:37:42;;;;;;;5.38;4.50;;;;;;;20.06;74.41;99219.69;5049837;28;20432;-74
2021/09/10 01:40:09;;;;;;;6.25;4.70;;;;;;;20.06;74.39;99221.50;5049662;28;20040;-72
2021/09/10 01:42:35;;;;;;;7.63;4.75;;;;;;;20.06;74.37;99225.06;5049034;28;20043;-74
2021/09/10 01:45:00;;;;;;;8.70;5.22;;;;;;;20.05;74.60;99231.38;5048376;28;20904;-74
2021/09/10 01:47:26;;;;;;;6.40;4.32;;;;;;;20.04;74.59;99232.38;5049248;28;20044;-72
2021/09/10 01:49:51;;;;;;;6.65;4.95;;;;;;;20.04;74.46;99231.53;5050127;28;20536;-74
2021/09/10 01:52:16;;;;;;;6.05;5.10;;;;;;;20.03;74.38;99227.16;5048756;28;20037;-73
2021/09/10 01:54:42;;;;;;;7.13;4.65;;;;;;;20.05;74.31;99230.53;5048108;28;20083;-73
2021/09/10 01:57:07;;;;;;;7.10;4.90;;;;;;;20.06;74.30;99225.06;5050017;28;20441;-74
2021/09/10 01:59:33;;;;;;;7.88;4.43;;;;;;;20.08;74.46;99232.91;5050700;28;20037;-73
2021/09/10 02:01:58;;;;;;;7.93;5.10;;;;;;;20.10;74.22;99228.25;5050565;28;20091;-73
2021/09/10 02:04:24;;;;;;;6.00;4.30;;;;;;;20.11;74.08;99229.97;5050961;28;20383;-73
2021/09/10 02:06:49;;;;;;;5.80;4.65;;;;;;;20.10;74.07;99231.78;5050161;28;20120;-73
2021/09/10 02:09:15;;;;;;;5.20;3.92;;;;;;;20.10;73.95;99231.78;5049987;28;20562;-73
2021/09/10 02:11:40;;;;;;;4.68;3.67;;;;;;;20.12;74.11;99228.94;5049255;28;20096;-73
2021/09/10 02:14:06;;;;;;;8.35;4.13;;;;;;;20.12;73.96;99234.31;5049623;28;20540;-73
2021/09/10 02:16:32;;;;;;;5.57;4.25;;;;;;;20.13;73.91;99230.63;5049641;28;20058;-73
2021/09/10 02:18:57;;;;;;;6.15;4.25;;;;;;;20.12;74.14;99235.16;5049832;28;20121;-72
2021/09/10 02:21:23;;;;;;;7.00;4.70;;;;;;;20.14;73.87;99240.34;5011429;28;1093008;-73
2021/09/10 02:23:49;;;;;;;5.50;3.92;;;;;;;20.10;74.10;99233.59;5051951;28;20040;-72
2021/09/10 02:26:15;;;;;;;5.80;4.70;;;;;;;20.07;74.26;99232.06;5051934;28;20418;-72
2021/09/10 02:28:40;;;;;;;4.60;4.10;;;;;;;20.05;74.38;99231.38;5052638;28;20033;-73
2021/09/10 02:31:05;;;;;;;7.57;3.80;;;;;;;20.05;74.29;99227.88;5051476;28;20087;-73
2021/09/10 02:33:31;;;;;;;5.57;4.50;;;;;;;20.04;74.19;99232.38;5051183;28;20084;-74
2021/09/10 02:35:57;;;;;;;5.82;4.40;;;;;;;20.01;74.26;99227.34;5052906;28;20044;-73
2021/09/10 02:38:23;;;;;;;6.65;4.53;;;;;;;19.99;74.72;99229.31;5051299;28;20072;-73
2021/09/10 02:40:50;;;;;;;7.35;4.50;;;;;;;19.97;74.74;99227.78;5049976;28;20033;-72
2021/09/10 02:43:16;;;;;;;4.90;3.65;;;;;;;19.95;74.74;99230.59;5048787;28;20067;-72
2021/09/10 02:45:42;;;;;;;5.07;4.57;;;;;;;19.91;74.97;99229.19;5049652;28;20127;-72
2021/09/10 02:48:07;;;;;;;10.90;4.45;;;;;;;19.90;74.87;99225.69;5049655;28;20041;-72
2021/09/10 02:50:33;;;;;;;6.57;4.80;;;;;;;19.86;75.04;99218.97;5049446;28;20048;-72
2021/09/10 02:52:58;;;;;;;7.28;4.78;;;;;;;19.86;74.95;99220.78;5048493;28;20041;-71
2021/09/10 02:55:24;;;;;;;5.78;4.30;;;;;;;19.87;74.91;99217.97;5049448;28;20040;-72
2021/09/10 02:57:49;;;;;;;5.22;4.05;;;;;;;19.86;74.93;99218.09;5049876;28;20133;-72
2021/09/10 03:00:15;;;;;;;6.07;4.03;;;;;;;19.86;75.15;99223.47;5058670;28;20508;-72
2021/09/10 03:02:41;;;;;;;7.78;3.72;;;;;;;19.83;75.22;99219.25;5059622;28;20040;-72
2021/09/10 03:05:08;;;;;;;6.68;3.95;;;;;;;19.82;75.15;99219.41;5064210;28;20056;-71
2021/09/10 03:07:33;;;;;;;4.85;4.30;;;;;;;19.81;75.09;99218.53;5061994;28;20044;-72
2021/09/10 03:09:59;;;;;;;6.85;5.38;;;;;;;19.80;75.50;99210.69;5064065;28;20454;-71
2021/09/10 03:12:24;;;;;;;6.75;5.10;;;;;;;19.76;75.47;99218.16;5064978;28;20041;-71
2021/09/10 03:14:49;;;;;;;6.07;4.30;;;;;;;19.71;75.47;99210.59;5049591;28;20037;-73
2021/09/10 03:17:15;;;;;;;7.60;4.70;;;;;;;19.68;75.80;99207.38;5063946;28;20041;-73
2021/09/10 03:19:40;;;;;;;7.03;5.07;;;;;;;19.67;75.67;99211.00;5059060;28;20032;-73
2021/09/10 03:22:06;;;;;;;6.40;4.78;;;;;;;19.65;75.87;99207.63;5048465;28;20045;-74
2021/09/10 03:24:31;;;;;;;5.70;4.63;;;;;;;19.66;75.75;99201.28;5047768;28;20449;-73
2021/09/10 03:26:57;;;;;;;6.90;4.30;;;;;;;19.69;75.30;99206.34;5058417;28;20041;-73
2021/09/10 03:29:22;;;;;;;6.47;4.32;;;;;;;19.68;75.44;99204.69;5063405;28;20057;-74
2021/09/10 03:31:47;;;;;;;6.82;4.50;;;;;;;19.69;75.22;99201.88;5052270;28;20110;-75
2021/09/10 03:34:13;;;;;;;4.85;4.30;;;;;;;19.70;75.16;99198.19;5050786;28;20102;-73
2021/09/10 03:36:38;;;;;;;6.85;4.47;;;;;;;19.69;75.28;99196.53;5050183;28;20037;-71
2021/09/10 03:39:03;;;;;;;6.40;4.55;;;;;;;19.67;75.23;99202.97;5048788;28;20033;-73
2021/09/10 03:41:29;;;;;;;5.50;4.60;;;;;;;19.68;75.14;99204.69;5046055;28;20559;-73
2021/09/10 03:43:54;;;;;;;5.90;4.30;;;;;;;19.66;75.10;99207.47;5048012;28;20041;-72
2021/09/10 03:46:21;;;;;;;6.05;4.22;;;;;;;19.63;75.01;99204.25;5049257;28;20025;-73
2021/09/10 03:48:47;;;;;;;7.32;4.32;;;;;;;19.57;75.25;99202.19;5053462;28;20175;-73
2021/09/10 03:51:13;;;;;;;5.90;4.70;;;;;;;19.51;75.38;99200.94;5055086;28;20051;-74
2021/09/10 03:53:38;;;;;;;5.50;4.30;;;;;;;19.48;75.74;99196.72;5057463;28;20026;-74
2021/09/10 03:56:05;;;;;;;6.95;4.45;;;;;;;19.45;75.63;99204.19;5057628;28;20041;-74
2021/09/10 03:58:30;;;;;;;6.50;4.40;;;;;;;19.43;75.67;99201.66;5068006;28;20040;-73
2021/09/10 04:00:56;;;;;;;7.07;4.30;;;;;;;19.42;75.47;99208.00;5065901;28;20045;-73
2021/09/10 04:03:21;;;;;;;5.63;4.10;;;;;;;19.41;75.75;99206.31;5069456;28;20033;-74
2021/09/10 04:05:47;;;;;;;4.30;3.70;;;;;;;19.44;75.49;99210.53;5054803;28;20504;-73
2021/09/10 04:08:13;;;;;;;4.97;4.43;;;;;;;19.45;75.36;99204.19;5053014;28;20043;-74
2021/09/10 04:10:38;;;;;;;5.93;3.60;;;;;;;19.47;75.31;99202.22;5048394;28;20121;-74
2021/09/10 04:13:03;;;;;;;4.88;3.67;;;;;;;19.49;75.18;99209.13;5047034;28;20059;-73
2021/09/10 04:15:29;;;;;;;6.28;4.13;;;;;;;19.49;75.05;99211.78;5046755;28;20049;-73
2021/09/10 04:17:54;;;;;;;6.72;4.07;;;;;;;19.47;74.93;99216.44;5047599;28;20056;-74
2021/09/10 04:20:20;;;;;;;6.05;3.95;;;;;;;19.48;75.00;99218.09;5047404;28;20032;-73
2021/09/10 04:22:45;;;;;;;5.10;3.53;;;;;;;19.47;74.82;99218.28;5047662;28;20052;-73
2021/09/10 04:25:11;;;;;;;6.90;4.28;;;;;;;19.43;74.98;99215.03;5048358;28;20037;-73
2021/09/10 04:27:37;;;;;;;5.55;4.57;;;;;;;19.44;74.84;99215.88;5048140;28;20039;-74
2021/09/10 04:30:04;;;;;;;5.25;4.43;;;;;;;19.41;74.94;99214.31;5047758;28;20033;-73
2021/09/10 04:32:30;;;;;;;6.30;3.90;;;;;;;19.40;74.76;99218.00;5046805;28;20068;-72
2021/09/10 04:34:55;;;;;;;7.85;3.80;;;;;;;19.38;74.90;99217.31;5048120;28;20443;-72
2021/09/10 04:37:20;;;;;;;4.45;3.65;;;;;;;19.39;74.77;99218.13;5048310;28;20033;-73
2021/09/10 04:39:46;;;;;;;4.95;3.20;;;;;;;19.35;75.14;99208.75;5047538;28;20040;-72
2021/09/10 04:42:11;;;;;;;4.38;3.13;;;;;;;19.33;75.35;99213.38;5047023;28;20129;-73
2021/09/10 04:44:36;;;;;;;4.90;3.50;;;;;;;19.31;74.84;99210.84;5047825;28;20120;-73
2021/09/10 04:47:02;;;;;;;6.22;3.20;;;;;;;19.27;75.10;99212.13;5047232;28;20132;-70
2021/09/10 04:49:28;;;;;;;5.32;3.75;;;;;;;19.30;74.95;99214.53;5047619;28;20045;-70
2021/09/10 04:51:53;;;;;;;5.20;3.70;;;;;;;19.23;74.86;99222.28;5047804;28;20567;-70
2021/09/10 04:54:18;;;;;;;4.43;3.03;;;;;;;19.21;74.94;99218.06;5047923;28;20123;-70
2021/09/10 04:56:45;;;;;;;5.05;3.95;;;;;;;19.22;74.66;99225.94;5047923;28;20062;-69
2021/09/10 04:59:11;;;;;;;4.47;3.70;;;;;;;19.20;75.02;99222.56;5046096;28;20659;-69
2021/09/10 05:01:37;;;;;;;10.30;3.25;;;;;;;19.23;74.60;99226.78;5046508;28;20037;-70
2021/09/10 05:04:02;;;;;;;5.75;3.60;;;;;;;19.25;74.76;99227.47;5048704;28;20029;-69
2021/09/10 05:06:28;;;;;;;4.68;3.83;;;;;;;19.24;74.60;99225.78;5052353;28;20101;-69
2021/09/10 05:08:54;;;;;;;4.43;3.50;;;;;;;19.22;74.93;99227.75;5051708;28;20086;-69
2021/09/10 05:11:19;;;;;;;5.85;3.08;;;;;;;19.20;74.79;99230.59;5051146;28;20033;-69
2021/09/10 05:13:44;;;;;;;5.35;3.97;;;;;;;19.31;75.33;99230.41;5050978;28;20219;-60
2021/09/10 05:16:10;;;;;;;4.45;3.65;;;;;;;19.43;73.71;99227.56;5051246;28;20036;-60
2021/09/10 05:18:35;;;;;;;4.22;3.28;;;;;;;19.51;73.79;99239.19;5033206;28;20052;-62
2021/09/10 05:21:01;;;;;;;4.78;3.15;;;;;;;19.62;73.17;99232.00;5050135;28;20041;-60
2021/09/10 05:23:26;;;;;;;4.50;3.50;;;;;;;19.63;72.46;99236.34;5050788;28;20060;-63
2021/09/10 05:25:51;;;;;;;9.07;3.78;;;;;;;19.61;72.28;99231.13;5051112;28;20486;-62
2021/09/10 05:28:17;;;;;;;4.25;3.15;;;;;;;19.57;72.59;99237.78;5051586;28;20021;-62
2021/09/10 05:30:42;;;;;;;8.30;3.35;;;;;;;19.52;72.70;99243.56;5050705;28;20052;-62
2021/09/10 05:33:07;;;;;;;4.65;3.50;;;;;;;19.50;72.84;99242.03;5049632;28;20052;-61
2021/09/10 05:35:33;;;;;;;5.38;3.42;;;;;;;19.41;73.14;99241.06;5045821;28;20041;-75
2021/09/10 05:37:58;;;;;;;4.60;3.40;;;;;;;19.38;73.34;99241.34;5030332;28;20108;-75
2021/09/10 05:40:23;;;;;;;4.50;2.90;;;;;;;19.36;73.60;99239.81;5030692;28;20033;-75
2021/09/10 05:42:49;;;;;;;7.50;3.75;;;;;;;19.39;73.28;99243.03;5029340;28;20037;-76
2021/09/10 05:45:15;;;;;;;5.00;3.60;;;;;;;19.41;73.01;99251.75;5030982;28;20099;-76
2021/09/10 05:47:40;;;;;;;8.80;4.13;;;;;;;19.38;73.28;99251.22;5029336;28;20442;-75
2021/09/10 05:50:07;;;;;;;5.05;3.42;;;;;;;19.37;73.34;99247.72;5029695;28;20085;-75
2021/09/10 05:52:32;;;;;;;5.22;4.05;;;;;;;19.41;73.37;99256.25;5028719;28;20040;-75
2021/09/10 05:54:57;;;;;;;4.80;3.63;;;;;;;19.42;73.33;99258.81;5031846;28;20390;-75
2021/09/10 05:57:23;;;;;;;3.97;3.13;;;;;;;19.43;73.30;99255.13;5027416;28;20041;-71
2021/09/10 05:59:48;;;;;;;7.22;3.55;;;;;;;19.44;73.51;99263.97;5025696;28;20087;-72
2021/09/10 06:02:14;;;;;;;4.95;3.58;;;;;;;19.42;73.90;99269.50;5038738;28;20510;-72
2021/09/10 06:04:39;;;;;;;5.03;4.00;;;;;;;19.42;73.65;99269.50;5032209;28;20111;-72
2021/09/10 06:07:05;;;;;;;6.80;3.75;;;;;;;19.44;73.50;99272.00;5029622;28;20033;-73
2021/09/10 06:09:31;;;;;;;4.53;3.28;;;;;;;19.46;73.43;99270.88;5035163;28;20029;-71
2021/09/10 06:11:56;;;;;;;4.50;3.70;;;;;;;19.51;73.28;99273.94;5033810;28;20049;-72
2021/09/10 06:14:22;;;;;;;7.95;3.72;;;;;;;19.56;73.00;99281.53;5043645;28;20041;-72
2021/09/10 06:16:47;;;;;;;5.22;3.33;;;;;;;19.62;72.70;99274.78;5034832;28;20042;-72
2021/09/10 06:19:12;;;;;;;5.68;3.45;;;;;;;19.65;72.62;99277.16;5044145;28;20033;-74
2021/09/10 06:21:38;;;;;;;4.97;3.25;;;;;;;19.66;72.50;99282.34;5043569;28;20047;-71
2021/09/10 06:24:03;;;;;;;4.20;3.13;;;;;;;19.73;72.23;99288.00;5044043;28;20040;-73
2021/09/10 06:26:29;;;;;;;6.07;3.95;;;;;;;19.78;72.09;99287.56;5036784;28;20036;-72
2021/09/10 06:28:54;;;;;;;6.28;3.75;;;;;;;19.81;72.13;99290.78;5039407;28;20033;-71
2021/09/10 06:31:20;;;;;;;5.18;3.88;;;;;;;19.86;71.98;99293.88;5043829;28;20067;-71
2021/09/10 06:33:45;;;;;;;4.85;3.55;;;;;;;19.91;71.93;99286.25;5045801;28;20560;-72
2021/09/10 06:36:10;;;;;;;4.43;3.35;;;;;;;19.97;71.59;99298.19;5045091;28;20099;-71
2021/09/10 06:38:36;;;;;;;4.25;2.92;;;;;;;20.02;71.69;99297.75;5044654;28;20033;-71
2021/09/10 06:41:01;;;;;;;5.18;4.28;;;;;;;20.04;71.49;99293.94;5043953;28;20099;-70
2021/09/10 06:43:26;;;;;;;6.32;3.63;;;;;;;20.11;71.48;99302.22;5041127;28;20116;-72
2021/09/10 06:45:52;;;;;;;5.88;4.30;;;;;;;20.15;71.39;99303.59;5048017;28;20126;-69
2021/09/10 06:48:17;;;;;;;7.10;4.03;;;;;;;20.17;71.48;99304.28;5063261;28;20101;-70
2021/09/10 06:50:43;;;;;;;5.88;4.28;;;;;;;20.17;71.83;99304.28;5063340;28;20048;-72
2021/09/10 06:53:08;;;;;;;5.47;4.90;;;;;;;20.19;71.39;99304.97;5043989;28;20384;-71
2021/09/10 06:55:34;;;;;;;6.40;4.35;;;;;;;20.27;71.47;99301.56;5043481;28;20785;-72
2021/09/10 06:58:00;;;;;;;5.53;3.75;;;;;;;20.34;71.28;99303.47;5042006;28;20627;-72
2021/09/10 07:00:25;;;;;;;8.40;5.60;;;;;;;20.38;70.72;99306.72;5042953;28;20116;-71
2021/09/10 07:02:51;;;;;;;7.20;3.83;;;;;;;20.47;70.66;99303.13;5041077;28;20071;-72
2021/09/10 07:05:16;;;;;;;9.10;5.00;;;;;;;20.57;70.50;99303.09;5043401;28;20029;-73
2021/09/10 07:07:41;;;;;;;7.60;4.10;;;;;;;20.63;70.22;99305.16;5043347;28;20029;-72
2021/09/10 07:10:07;;;;;;;5.20;4.18;;;;;;;20.76;69.96;99308.31;5041032;28;20041;-70
2021/09/10 07:12:33;;;;;;;4.57;3.75;;;;;;;20.81;69.91;99307.84;5038844;28;20041;-70
2021/09/10 07:14:58;;;;;;;4.88;3.80;;;;;;;20.91;69.95;99313.13;5043378;28;20056;-72
2021/09/10 07:17:24;;;;;;;5.45;4.07;;;;;;;20.97;69.67;99307.19;5043616;28;20037;-72
2021/09/10 07:19:49;;;;;;;6.63;4.88;;;;;;;21.01;69.85;99301.31;5044395;28;20051;-72
2021/09/10 07:22:15;;;;;;;5.82;4.75;;;;;;;21.04;69.39;99305.53;5062743;28;20043;-72
2021/09/10 07:24:40;;;;;;;6.72;4.72;;;;;;;21.09;69.08;99313.94;5055321;28;20051;-73
2021/09/10 07:27:06;;;;;;;6.45;4.53;;;;;;;21.15;69.28;99310.66;5055909;28;20036;-72
2021/09/10 07:29:31;;;;;;;6.80;4.75;;;;;;;21.17;68.37;99313.22;5058285;28;20032;-70
2021/09/10 07:31:57;;;;;;;6.93;4.65;;;;;;;21.17;68.47;99311.38;5040924;28;20063;-72
2021/09/10 07:34:22;;;;;;;5.03;4.28;;;;;;;21.22;68.49;99313.59;5057693;28;20037;-72
2021/09/10 07:36:52;;;;;;;6.82;4.18;;;;;;;21.26;68.27;99312.25;5038052;28;20068;-71
2021/09/10 07:39:21;;;;;;;11.27;4.43;;;;;;;21.31;68.43;99315.31;5041642;28;20118;-72
2021/09/10 07:41:48;;;;;;;9.48;5.10;;;;;;;21.37;68.01;99327.28;5041051;28;20049;-71
2021/09/10 07:44:15;;;;;;;6.53;4.03;;;;;;;21.38;68.30;99328.94;5043736;28;20041;-72
2021/09/10 07:46:41;;;;;;;6.03;4.28;;;;;;;21.37;68.30;99328.09;5043291;28;20037;-72
2021/09/10 07:49:08;;;;;;;7.40;5.03;;;;;;;21.34;68.19;99328.44;5042999;28;20626;-72
2021/09/10 07:51:35;;;;;;;5.55;4.22;;;;;;;21.34;68.26;99328.44;5042423;28;20039;-73
2021/09/10 07:54:01;;;;;;;5.00;3.58;;;;;;;21.36;68.17;99325.56;5041740;28;20604;-73
2021/09/10 07:56:26;;;;;;;7.70;4.53;;;;;;;21.33;67.97;99328.56;5042953;28;20147;-70
2021/09/10 07:58:51;;;;;;;7.93;4.20;;;;;;;21.29;68.15;99332.53;5040924;28;20091;-71
2021/09/10 08:01:16;;;;;;;6.05;3.83;;;;;;;21.31;68.04;99330.56;5042227;28;20130;-72
2021/09/10 08:03:42;;;;;;;6.95;4.18;;;;;;;21.32;67.84;99338.47;5043439;28;20172;-71
2021/09/10 08:06:07;;;;;;;6.63;4.05;;;;;;;21.32;67.44;99338.47;5042708;28;20132;-71
2021/09/10 08:08:32;;;;;;;5.93;3.75;;;;;;;21.32;67.77;99340.31;5044322;28;20040;-72
2021/09/10 08:10:58;;;;;;;6.28;4.25;;;;;;;21.31;67.98;99333.25;5041650;28;20033;-72
2021/09/10 08:13:23;;;;;;;5.13;3.58;;;;;;;21.34;67.86;99335.59;5043649;28;20529;-70
2021/09/10 08:15:49;;;;;;;12.45;4.30;;;;;;;21.43;67.62;99348.13;5042605;28;20052;-71
2021/09/10 08:18:14;;;;;;;7.57;3.72;;;;;;;21.55;67.08;99341.50;5042434;28;20064;-72
2021/09/10 08:20:40;;;;;;;5.95;3.65;;;;;;;21.66;66.28;99351.16;5042393;28;20140;-72
2021/09/10 08:23:05;;;;;;;4.95;4.45;;;;;;;21.71;65.62;99351.53;5041127;28;20036;-71
2021/09/10 08:25:30;;;;;;;5.03;3.30;;;;;;;21.76;65.38;99349.19;5042324;28;20048;-72
2021/09/10 08:27:56;;;;;;;5.68;3.35;;;;;;;21.82;65.24;99358.44;5041176;28;20053;-71
2021/09/10 08:30:21;;;;;;;5.65;3.17;;;;;;;21.92;64.84;99350.28;5041711;28;20033;-72
2021/09/10 08:32:46;;;;;;;6.30;3.28;;;;;;;21.91;64.77;99352.16;5041156;28;20041;-71
2021/09/10 08:35:12;;;;;;;4.68;3.40;;;;;;;21.92;64.61;99352.97;5041786;28;20569;-71
2021/09/10 08:37:37;;;;;;;4.65;2.80;;;;;;;21.94;64.68;99353.66;5042293;28;20073;-72
2021/09/10 08:40:04;;;;;;;4.43;3.33;;;;;;;21.96;65.06;99357.03;5026929;28;20037;-71
2021/09/10 08:42:29;;;;;;;7.95;3.17;;;;;;;21.94;64.59;99362.56;5045473;28;20035;-71
2021/09/10 08:44:55;;;;;;;4.45;3.03;;;;;;;21.87;64.61;99364.19;5046271;28;20033;-71
2021/09/10 08:47:23;;;;;;;4.93;3.22;;;;;;;21.85;64.74;99364.34;5045792;28;20048;-71
2021/09/10 08:49:48;;;;;;;3.83;2.65;;;;;;;21.85;65.05;99368.88;5042773;28;20410;-72
2021/09/10 08:52:17;;;;;;;8.25;3.35;;;;;;;21.82;65.08;99363.81;5041091;28;20045;-71
2021/09/10 08:54:43;;;;;;;3.38;2.58;;;;;;;21.80;65.55;99372.00;5045822;28;20032;-72
2021/09/10 08:57:09;;;;;;;3.15;2.63;;;;;;;21.76;66.22;99375.19;5044485;28;20041;-72
2021/09/10 08:59:34;;;;;;;3.35;2.70;;;;;;;21.76;67.48;99370.66;5046392;28;20037;-71
2021/09/10 09:02:00;;;;;;;5.88;3.78;;;;;;;21.66;67.82;99380.66;5045110;28;20102;-71
2021/09/10 09:04:32;;;;;;;4.50;2.88;;;;;;;21.61;68.74;99386.50;5045834;28;20059;-72
2021/09/10 09:06:58;;;;;;;4.25;2.97;;;;;;;21.56;68.60;99378.06;5043494;28;20393;-71
2021/09/10 09:09:39;;;;;;;8.05;3.50;;;;;;;21.54;68.64;99374.69;5045616;28;20068;-70
2021/09/10 09:12:20;;;;;;;5.55;3.45;;;;;;;21.57;69.41;99381.59;5045171;28;20642;-72
2021/09/10 09:14:52;;;;;;;4.40;3.42;;;;;;;21.67;69.16;99382.34;5047234;28;20041;-72
2021/09/10 09:17:28;;;;;;;4.57;3.80;;;;;;;22.05;68.28;99386.44;5041659;28;20041;-73
2021/09/10 09:20:15;;;;;;;4.75;3.45;;;;;;;22.80;65.36;99383.09;5044545;28;20072;-72
2021/09/10 09:23:01;;;;;;;3.15;2.65;;;;;;;23.26;64.53;99385.38;5044110;28;20044;-72
2021/09/10 09:25:29;;;;;;;5.45;3.50;;;;;;;23.46;63.90;99381.34;5043783;28;20041;-72
2021/09/10 09:28:14;;;;;;;4.05;2.92;;;;;;;23.71;63.07;99384.88;5047175;28;20128;-73
2021/09/10 09:30:39;;;;;;;4.60;3.05;;;;;;;23.76;62.82;99379.00;5046089;28;20037;-72
2021/09/10 09:33:05;;;;;;;4.55;3.38;;;;;;;24.30;62.26;99383.75;5046131;28;20087;-72
2021/09/10 09:35:32;;;;;;;3.63;2.78;;;;;;;24.32;60.51;99385.28;5051778;28;20041;-73
2021/09/10 09:37:58;;;;;;;5.20;3.00;;;;;;;24.36;61.51;99383.88;5050168;28;20452;-73
2021/09/10 09:40:33;;;;;;;6.03;3.20;;;;;;;24.23;62.29;99388.16;5048844;28;20079;-73
2021/09/10 09:42:59;;;;;;;3.38;2.53;;;;;;;24.13;62.43;99383.81;5046657;28;20063;-72
2021/09/10 09:45:24;;;;;;;3.60;2.78;;;;;;;23.93;63.22;99386.06;5047652;28;20100;-73
2021/09/10 09:47:50;;;;;;;3.75;2.70;;;;;;;23.86;63.22;99385.06;5047343;28;20040;-71
2021/09/10 09:50:18;;;;;;;3.55;2.83;;;;;;;23.86;62.53;99382.34;5045528;28;20037;-71
2021/09/10 09:52:47;;;;;;;3.75;2.80;;;;;;;24.07;62.01;99380.97;5043003;28;20037;-71
2021/09/10 09:55:12;;;;;;;3.88;2.67;;;;;;;24.15;60.92;99383.66;5045268;28;20614;-70
2021/09/10 09:57:38;;;;;;;4.03;2.80;;;;;;;24.43;60.25;99381.34;5045229;28;20041;-70
2021/09/10 10:00:06;;;;;;;2.88;2.58;;;;;;;25.03;58.85;99386.13;5045243;28;20115;-73
2021/09/10 10:02:32;;;;;;;3.40;3.08;;;;;;;25.32;57.63;99384.59;5044190;28;20033;-72
2021/09/10 10:04:59;;;;;;;3.47;2.60;;;;;;;25.12;58.82;99389.59;5045712;28;20029;-73
2021/09/10 10:07:31;;;;;;;3.25;2.85;;;;;;;25.02;58.23;99392.53;5043932;28;20043;-71
2021/09/10 10:09:58;;;;;;;4.03;2.90;;;;;;;26.33;54.54;99391.38;5043271;28;20059;-72
2021/09/10 10:12:26;;;;;;;3.47;3.08;;;;;;;26.91;52.50;99386.13;5043984;28;20045;-71
2021/09/10 10:14:52;;;;;;;5.35;3.53;;;;;;;27.23;51.32;99380.44;5044796;28;20114;-71
2021/09/10 10:17:29;;;;;;;4.68;3.50;;;;;;;27.03;51.69;99389.16;5044426;28;20037;-71
2021/09/10 10:19:54;;;;;;;5.35;4.13;;;;;;;26.43;53.48;99392.97;5043735;28;20585;-71
2021/09/10 10:22:37;;;;;;;5.50;4.40;;;;;;;25.49;55.47;99398.78;5041901;28;20122;-71
2021/09/10 10:25:04;;;;;;;6.47;4.00;;;;;;;25.19;56.29;99404.06;5055223;28;20052;-72
2021/09/10 10:27:41;;;;;;;5.15;3.40;;;;;;;24.87;57.64;99391.59;5044557;28;20552;-71
2021/09/10 10:30:18;;;;;;;4.07;3.13;;;;;;;24.65;58.34;99393.25;5044280;28;20033;-71
2021/09/10 10:32:49;;;;;;;3.53;2.80;;;;;;;24.24;59.42;99395.22;5043480;28;20114;-72
2021/09/10 10:35:30;;;;;;;6.38;2.65;;;;;;;23.84;60.31;99388.91;5044469;28;20033;-71
2021/09/10 10:38:01;;;;;;;4.68;2.97;;;;;;;23.44;61.35;99385.22;5044079;28;20402;-71
2021/09/10 10:40:42;;;;;;;4.95;2.90;;;;;;;23.24;62.22;99384.72;5043882;28;20053;-71
2021/09/10 10:43:32;;;;;;;3.47;2.70;;;;;;;23.02;64.63;99396.97;5043713;28;20110;-71
2021/09/10 10:46:01;;;;;;;3.85;3.05;;;;;;;22.82;65.67;99396.38;5041699;28;20041;-73
2021/09/10 10:48:31;;;;;;;3.80;2.42;;;;;;;22.61;66.71;99400.31;5043675;28;20422;-73
2021/09/10 10:51:01;;;;;;;3.35;2.30;;;;;;;22.42;68.22;99393.38;5043426;28;20037;-72
2021/09/10 10:53:48;;;;;;;3.20;2.33;;;;;;;22.34;68.32;99390.63;5043612;28;20029;-71
2021/09/10 10:56:25;;;;;;;3.65;2.20;;;;;;;22.23;68.19;99386.41;5039218;28;20044;-72
2021/09/10 10:59:15;;;;;;;5.05;2.25;;;;;;;22.13;68.43;99390.19;5043341;28;20702;-71
2021/09/10 11:02:22;;;;;;;5.53;2.65;;;;;;;22.01;69.08;99379.72;5042358;28;20417;-71
2021/09/10 11:05:06;;;;;;;4.93;2.45;;;;;;;22.05;69.48;99381.09;5028477;28;20056;-76
2021/09/10 11:07:32;;;;;;;4.80;2.85;;;;;;;22.08;69.59;99372.69;5038530;28;20037;-76
2021/09/10 11:10:08;;;;;;;4.47;2.35;;;;;;;22.21;69.23;99363.41;5046760;28;20052;-76
2021/09/10 11:12:35;;;;;;;3.25;2.38;;;;;;;22.36;68.57;99367.16;5046068;28;20123;-75
2021/09/10 11:15:02;;;;;;;3.53;2.67;;;;;;;22.58;67.70;99370.25;5048432;28;20052;-75
2021/09/10 11:17:27;;;;;;;4.10;2.63;;;;;;;22.77;66.27;99361.94;5048515;28;20040;-75
2021/09/10 11:19:57;;;;;;;3.05;2.33;;;;;;;23.06;66.20;99357.97;5048117;28;20032;-76
2021/09/10 11:22:26;;;;;;;3.58;2.85;;;;;;;23.11;65.36;99352.91;5047212;28;20123;-75
2021/09/10 11:25:10;;;;;;;5.07;1.92;;;;;;;23.15;63.76;99351.59;5048306;28;20033;-76
2021/09/10 11:27:38;;;;;;;4.10;2.45;;;;;;;23.13;63.75;99351.75;5051460;28;20049;-76
2021/09/10 11:30:10;;;;;;;4.10;2.30;;;;;;;23.28;63.20;99351.06;5049865;28;20577;-76
2021/09/10 11:32:35;;;;;;;3.22;2.17;;;;;;;23.26;63.61;99343.19;5053023;28;20487;-76